sensor_id;sensor_type;location;lat;lon;timestamp;temperature;humidity
30290;DHT22;17105;55.652;37.710;2022-11-25T00:00:29;-0.30;81.30
30290;DHT22;17105;55.652;37.710;2022-11-25T00:01:04;-0.30;81.30
30290;DHT22;17105;55.652;37.710;2022-11-25T00:01:39;-0.30;81.30
30290;DHT22;17105;55.652;37.710;2022-11-25T00:02:15;-0.30;81.40
30290;DHT22;17105;55.652;37.710;2022-11-25T00:02:50;-0.30;81.30
30290;DHT22;17105;55.652;37.710;2022-11-25T00:03:24;-0.30;81.40
30290;DHT22;17105;55.652;37.710;2022-11-25T00:03:59;-0.30;81.10
30290;DHT22;17105;55.652;37.710;2022-11-25T00:04:34;-0.30;81.10
30290;DHT22;17105;55.652;37.710;2022-11-25T00:05:09;-0.40;81.20
30290;DHT22;17105;55.652;37.710;2022-11-25T00:05:44;-0.40;81.20
30290;DHT22;17105;55.652;37.710;2022-11-25T00:06:19;-0.40;81.10
30290;DHT22;17105;55.652;37.710;2022-11-25T00:06:54;-0.40;80.90
30290;DHT22;17105;55.652;37.710;2022-11-25T00:07:32;-0.40;81.10
30290;DHT22;17105;55.652;37.710;2022-11-25T00:08:07;-0.50;81.10
30290;DHT22;17105;55.652;37.710;2022-11-25T00:08:42;-0.50;81.10
30290;DHT22;17105;55.652;37.710;2022-11-25T00:09:19;-0.50;81.10
30290;DHT22;17105;55.652;37.710;2022-11-25T00:09:53;-0.50;81.00
30290;DHT22;17105;55.652;37.710;2022-11-25T00:10:29;-0.40;81.00
30290;DHT22;17105;55.652;37.710;2022-11-25T00:11:03;-0.40;81.00
30290;DHT22;17105;55.652;37.710;2022-11-25T00:11:38;-0.40;80.90
30290;DHT22;17105;55.652;37.710;2022-11-25T00:12:13;-0.40;80.70
30290;DHT22;17105;55.652;37.710;2022-11-25T00:12:47;-0.30;80.60
30290;DHT22;17105;55.652;37.710;2022-11-25T00:13:22;-0.40;80.50
30290;DHT22;17105;55.652;37.710;2022-11-25T00:13:58;-0.30;80.40
30290;DHT22;17105;55.652;37.710;2022-11-25T00:14:32;-0.30;80.30
30290;DHT22;17105;55.652;37.710;2022-11-25T00:15:09;-0.30;80.30
30290;DHT22;17105;55.652;37.710;2022-11-25T00:15:43;-0.30;80.30
30290;DHT22;17105;55.652;37.710;2022-11-25T00:16:19;-0.30;80.40
30290;DHT22;17105;55.652;37.710;2022-11-25T00:16:53;-0.30;80.40
30290;DHT22;17105;55.652;37.710;2022-11-25T00:17:28;-0.30;80.30
30290;DHT22;17105;55.652;37.710;2022-11-25T00:18:02;-0.30;80.40
30290;DHT22;17105;55.652;37.710;2022-11-25T00:18:36;-0.30;80.30
30290;DHT22;17105;55.652;37.710;2022-11-25T00:19:11;-0.40;80.10
30290;DHT22;17105;55.652;37.710;2022-11-25T00:19:46;-0.40;80.10
30290;DHT22;17105;55.652;37.710;2022-11-25T00:20:21;-0.40;80.30
30290;DHT22;17105;55.652;37.710;2022-11-25T00:20:55;-0.50;80.20
30290;DHT22;17105;55.652;37.710;2022-11-25T00:21:31;-0.40;80.20
30290;DHT22;17105;55.652;37.710;2022-11-25T00:22:05;-0.40;80.20
30290;DHT22;17105;55.652;37.710;2022-11-25T00:22:40;-0.40;80.30
30290;DHT22;17105;55.652;37.710;2022-11-25T00:23:15;-0.40;80.30
30290;DHT22;17105;55.652;37.710;2022-11-25T00:23:49;-0.40;80.30
30290;DHT22;17105;55.652;37.710;2022-11-25T00:24:25;-0.40;80.30
30290;DHT22;17105;55.652;37.710;2022-11-25T00:25:00;-0.40;80.30
30290;DHT22;17105;55.652;37.710;2022-11-25T00:25:35;-0.30;80.20
30290;DHT22;17105;55.652;37.710;2022-11-25T00:26:09;-0.30;80.20
30290;DHT22;17105;55.652;37.710;2022-11-25T00:26:45;-0.30;80.10
30290;DHT22;17105;55.652;37.710;2022-11-25T00:27:19;-0.30;79.90
30290;DHT22;17105;55.652;37.710;2022-11-25T00:27:54;-0.30;79.90
30290;DHT22;17105;55.652;37.710;2022-11-25T00:28:28;-0.30;79.90
30290;DHT22;17105;55.652;37.710;2022-11-25T00:29:03;-0.40;79.90
30290;DHT22;17105;55.652;37.710;2022-11-25T00:29:39;-0.40;79.80
30290;DHT22;17105;55.652;37.710;2022-11-25T00:30:14;-0.40;79.80
30290;DHT22;17105;55.652;37.710;2022-11-25T00:30:48;-0.40;79.70
30290;DHT22;17105;55.652;37.710;2022-11-25T00:31:23;-0.40;79.60
30290;DHT22;17105;55.652;37.710;2022-11-25T00:31:56;-0.40;79.60
30290;DHT22;17105;55.652;37.710;2022-11-25T00:32:31;-0.40;79.60
30290;DHT22;17105;55.652;37.710;2022-11-25T00:33:05;-0.40;79.70
30290;DHT22;17105;55.652;37.710;2022-11-25T00:33:39;-0.40;79.90
30290;DHT22;17105;55.652;37.710;2022-11-25T00:34:13;-0.40;79.80
30290;DHT22;17105;55.652;37.710;2022-11-25T00:34:48;-0.40;79.80
30290;DHT22;17105;55.652;37.710;2022-11-25T00:35:22;-0.40;79.70
30290;DHT22;17105;55.652;37.710;2022-11-25T00:35:55;-0.40;79.60
30290;DHT22;17105;55.652;37.710;2022-11-25T00:36:33;-0.40;79.60
30290;DHT22;17105;55.652;37.710;2022-11-25T00:37:07;-0.40;79.60
30290;DHT22;17105;55.652;37.710;2022-11-25T00:37:42;-0.40;79.60
30290;DHT22;17105;55.652;37.710;2022-11-25T00:38:16;-0.40;79.60
30290;DHT22;17105;55.652;37.710;2022-11-25T00:38:51;-0.50;79.80
30290;DHT22;17105;55.652;37.710;2022-11-25T00:39:26;-0.50;79.80
30290;DHT22;17105;55.652;37.710;2022-11-25T00:40:05;-0.50;79.90
30290;DHT22;17105;55.652;37.710;2022-11-25T00:40:39;-0.60;80.00
30290;DHT22;17105;55.652;37.710;2022-11-25T00:41:14;-0.60;79.90
30290;DHT22;17105;55.652;37.710;2022-11-25T00:42:07;-0.60;80.10
30290;DHT22;17105;55.652;37.710;2022-11-25T00:43:00;-0.60;80.20
30290;DHT22;17105;55.652;37.710;2022-11-25T00:43:52;-0.60;80.40
30290;DHT22;17105;55.652;37.710;2022-11-25T00:44:44;-0.60;80.40
30290;DHT22;17105;55.652;37.710;2022-11-25T00:45:18;-0.60;80.30
30290;DHT22;17105;55.652;37.710;2022-11-25T00:45:53;-0.50;80.20
30290;DHT22;17105;55.652;37.710;2022-11-25T00:46:27;-0.50;80.00
30290;DHT22;17105;55.652;37.710;2022-11-25T00:47:01;-0.60;79.80
30290;DHT22;17105;55.652;37.710;2022-11-25T00:47:36;-0.60;79.70
30290;DHT22;17105;55.652;37.710;2022-11-25T00:48:11;-0.60;79.70
30290;DHT22;17105;55.652;37.710;2022-11-25T00:48:46;-0.60;79.80
30290;DHT22;17105;55.652;37.710;2022-11-25T00:49:21;-0.60;79.80
30290;DHT22;17105;55.652;37.710;2022-11-25T00:49:55;-0.60;79.90
30290;DHT22;17105;55.652;37.710;2022-11-25T00:50:30;-0.60;80.00
30290;DHT22;17105;55.652;37.710;2022-11-25T00:51:04;-0.70;80.10
30290;DHT22;17105;55.652;37.710;2022-11-25T00:51:39;-0.60;80.20
30290;DHT22;17105;55.652;37.710;2022-11-25T00:52:14;-0.60;80.20
30290;DHT22;17105;55.652;37.710;2022-11-25T00:52:49;-0.60;80.30
30290;DHT22;17105;55.652;37.710;2022-11-25T00:53:25;-0.60;80.30
30290;DHT22;17105;55.652;37.710;2022-11-25T00:53:59;-0.60;80.30
30290;DHT22;17105;55.652;37.710;2022-11-25T00:54:34;-0.60;80.40
30290;DHT22;17105;55.652;37.710;2022-11-25T00:55:09;-0.60;80.40
30290;DHT22;17105;55.652;37.710;2022-11-25T00:55:43;-0.60;80.50
30290;DHT22;17105;55.652;37.710;2022-11-25T00:56:35;-0.50;80.50
30290;DHT22;17105;55.652;37.710;2022-11-25T00:57:10;-0.50;80.50
30290;DHT22;17105;55.652;37.710;2022-11-25T00:57:44;-0.50;80.50
30290;DHT22;17105;55.652;37.710;2022-11-25T00:58:18;-0.50;80.50
30290;DHT22;17105;55.652;37.710;2022-11-25T00:58:53;-0.50;80.40
30290;DHT22;17105;55.652;37.710;2022-11-25T00:59:27;-0.50;80.30
30290;DHT22;17105;55.652;37.710;2022-11-25T01:00:05;-0.50;80.30
30290;DHT22;17105;55.652;37.710;2022-11-25T01:00:39;-0.50;80.50
30290;DHT22;17105;55.652;37.710;2022-11-25T01:01:12;-0.60;80.50
30290;DHT22;17105;55.652;37.710;2022-11-25T01:01:47;-0.60;80.60
30290;DHT22;17105;55.652;37.710;2022-11-25T01:02:22;-0.60;80.60
30290;DHT22;17105;55.652;37.710;2022-11-25T01:02:58;-0.50;80.60
30290;DHT22;17105;55.652;37.710;2022-11-25T01:03:33;-0.50;80.50
30290;DHT22;17105;55.652;37.710;2022-11-25T01:04:09;-0.50;80.50
30290;DHT22;17105;55.652;37.710;2022-11-25T01:04:43;-0.50;80.40
30290;DHT22;17105;55.652;37.710;2022-11-25T01:05:19;-0.50;80.50
30290;DHT22;17105;55.652;37.710;2022-11-25T01:05:54;-0.50;80.50
30290;DHT22;17105;55.652;37.710;2022-11-25T01:06:28;-0.50;80.60
30290;DHT22;17105;55.652;37.710;2022-11-25T01:07:01;-0.50;81.00
30290;DHT22;17105;55.652;37.710;2022-11-25T01:07:38;-0.50;80.40
30290;DHT22;17105;55.652;37.710;2022-11-25T01:08:12;-0.50;80.40
30290;DHT22;17105;55.652;37.710;2022-11-25T01:08:47;-0.50;80.30
30290;DHT22;17105;55.652;37.710;2022-11-25T01:09:22;-0.50;80.30
30290;DHT22;17105;55.652;37.710;2022-11-25T01:09:57;-0.50;80.30
30290;DHT22;17105;55.652;37.710;2022-11-25T01:10:31;-0.50;80.30
30290;DHT22;17105;55.652;37.710;2022-11-25T01:11:06;-0.50;80.20
30290;DHT22;17105;55.652;37.710;2022-11-25T01:11:41;-0.50;80.10
30290;DHT22;17105;55.652;37.710;2022-11-25T01:12:15;-0.50;80.40
30290;DHT22;17105;55.652;37.710;2022-11-25T01:12:49;-0.50;80.50
30290;DHT22;17105;55.652;37.710;2022-11-25T01:13:23;-0.50;80.50
30290;DHT22;17105;55.652;37.710;2022-11-25T01:13:57;-0.50;80.60
30290;DHT22;17105;55.652;37.710;2022-11-25T01:14:33;-0.50;80.50
30290;DHT22;17105;55.652;37.710;2022-11-25T01:15:09;-0.40;80.40
30290;DHT22;17105;55.652;37.710;2022-11-25T01:15:43;-0.40;80.40
30290;DHT22;17105;55.652;37.710;2022-11-25T01:16:19;-0.40;80.30
30290;DHT22;17105;55.652;37.710;2022-11-25T01:16:53;-0.40;80.30
30290;DHT22;17105;55.652;37.710;2022-11-25T01:17:28;-0.40;80.30
30290;DHT22;17105;55.652;37.710;2022-11-25T01:18:03;-0.40;80.10
30290;DHT22;17105;55.652;37.710;2022-11-25T01:18:37;-0.40;80.20
30290;DHT22;17105;55.652;37.710;2022-11-25T01:19:12;-0.50;80.20
30290;DHT22;17105;55.652;37.710;2022-11-25T01:19:46;-0.50;80.20
30290;DHT22;17105;55.652;37.710;2022-11-25T01:20:24;-0.40;80.30
30290;DHT22;17105;55.652;37.710;2022-11-25T01:21:03;-0.40;80.30
30290;DHT22;17105;55.652;37.710;2022-11-25T01:21:37;-0.40;80.20
30290;DHT22;17105;55.652;37.710;2022-11-25T01:22:15;-0.40;80.30
30290;DHT22;17105;55.652;37.710;2022-11-25T01:22:50;-0.40;80.10
30290;DHT22;17105;55.652;37.710;2022-11-25T01:23:24;-0.40;80.10
30290;DHT22;17105;55.652;37.710;2022-11-25T01:24:02;-0.40;80.10
30290;DHT22;17105;55.652;37.710;2022-11-25T01:24:37;-0.40;80.10
30290;DHT22;17105;55.652;37.710;2022-11-25T01:25:13;-0.40;80.20
30290;DHT22;17105;55.652;37.710;2022-11-25T01:25:49;-0.40;80.30
30290;DHT22;17105;55.652;37.710;2022-11-25T01:26:23;-0.40;80.30
30290;DHT22;17105;55.652;37.710;2022-11-25T01:26:58;-0.40;80.40
30290;DHT22;17105;55.652;37.710;2022-11-25T01:27:32;-0.40;80.40
30290;DHT22;17105;55.652;37.710;2022-11-25T01:28:06;-0.40;80.40
30290;DHT22;17105;55.652;37.710;2022-11-25T01:28:40;-0.30;80.50
30290;DHT22;17105;55.652;37.710;2022-11-25T01:29:16;-0.30;80.40
30290;DHT22;17105;55.652;37.710;2022-11-25T01:29:50;-0.40;80.40
30290;DHT22;17105;55.652;37.710;2022-11-25T01:30:26;-0.40;80.50
30290;DHT22;17105;55.652;37.710;2022-11-25T01:31:00;-0.40;80.60
30290;DHT22;17105;55.652;37.710;2022-11-25T01:31:34;-0.50;80.60
30290;DHT22;17105;55.652;37.710;2022-11-25T01:32:09;-0.50;80.70
30290;DHT22;17105;55.652;37.710;2022-11-25T01:32:43;-0.50;80.90
30290;DHT22;17105;55.652;37.710;2022-11-25T01:33:17;-0.50;81.00
30290;DHT22;17105;55.652;37.710;2022-11-25T01:33:52;-0.50;80.90
30290;DHT22;17105;55.652;37.710;2022-11-25T01:34:27;-0.50;80.80
30290;DHT22;17105;55.652;37.710;2022-11-25T01:35:02;-0.50;80.70
30290;DHT22;17105;55.652;37.710;2022-11-25T01:35:37;-0.50;80.60
30290;DHT22;17105;55.652;37.710;2022-11-25T01:36:12;-0.50;80.60
30290;DHT22;17105;55.652;37.710;2022-11-25T01:36:47;-0.50;80.50
30290;DHT22;17105;55.652;37.710;2022-11-25T01:37:22;-0.50;80.60
30290;DHT22;17105;55.652;37.710;2022-11-25T01:37:55;-0.50;80.60
30290;DHT22;17105;55.652;37.710;2022-11-25T01:38:30;-0.50;80.80
30290;DHT22;17105;55.652;37.710;2022-11-25T01:39:05;-0.60;80.90
30290;DHT22;17105;55.652;37.710;2022-11-25T01:39:39;-0.60;81.10
30290;DHT22;17105;55.652;37.710;2022-11-25T01:40:16;-0.70;81.10
30290;DHT22;17105;55.652;37.710;2022-11-25T01:40:50;-0.70;81.20
30290;DHT22;17105;55.652;37.710;2022-11-25T01:41:24;-0.60;81.40
30290;DHT22;17105;55.652;37.710;2022-11-25T01:42:00;-0.60;81.50
30290;DHT22;17105;55.652;37.710;2022-11-25T01:42:34;-0.70;81.50
30290;DHT22;17105;55.652;37.710;2022-11-25T01:43:14;-0.60;81.40
30290;DHT22;17105;55.652;37.710;2022-11-25T01:44:06;-0.60;81.20
30290;DHT22;17105;55.652;37.710;2022-11-25T01:44:40;-0.60;81.10
30290;DHT22;17105;55.652;37.710;2022-11-25T01:45:33;-0.60;81.00
30290;DHT22;17105;55.652;37.710;2022-11-25T01:46:11;-0.60;81.00
30290;DHT22;17105;55.652;37.710;2022-11-25T01:46:50;-0.60;81.00
30290;DHT22;17105;55.652;37.710;2022-11-25T01:47:26;-0.60;81.00
30290;DHT22;17105;55.652;37.710;2022-11-25T01:48:02;-0.60;80.90
30290;DHT22;17105;55.652;37.710;2022-11-25T01:48:40;-0.60;81.00
30290;DHT22;17105;55.652;37.710;2022-11-25T01:49:15;-0.60;81.20
30290;DHT22;17105;55.652;37.710;2022-11-25T01:49:51;-0.60;81.30
30290;DHT22;17105;55.652;37.710;2022-11-25T01:50:26;-0.70;81.40
30290;DHT22;17105;55.652;37.710;2022-11-25T01:51:07;-0.70;81.60
30290;DHT22;17105;55.652;37.710;2022-11-25T01:51:45;-0.70;81.70
30290;DHT22;17105;55.652;37.710;2022-11-25T01:52:22;-0.70;81.70
30290;DHT22;17105;55.652;37.710;2022-11-25T01:52:57;-0.60;81.50
30290;DHT22;17105;55.652;37.710;2022-11-25T01:53:30;-0.60;81.50
30290;DHT22;17105;55.652;37.710;2022-11-25T01:54:07;-0.70;81.50
30290;DHT22;17105;55.652;37.710;2022-11-25T01:54:43;-0.70;81.60
30290;DHT22;17105;55.652;37.710;2022-11-25T01:55:23;-0.70;81.70
30290;DHT22;17105;55.652;37.710;2022-11-25T01:55:59;-0.70;81.70
30290;DHT22;17105;55.652;37.710;2022-11-25T01:56:35;-0.70;81.70
30290;DHT22;17105;55.652;37.710;2022-11-25T01:57:10;-0.60;81.80
30290;DHT22;17105;55.652;37.710;2022-11-25T01:57:47;-0.60;81.70
30290;DHT22;17105;55.652;37.710;2022-11-25T01:58:24;-0.60;81.60
30290;DHT22;17105;55.652;37.710;2022-11-25T01:58:59;-0.60;81.70
30290;DHT22;17105;55.652;37.710;2022-11-25T01:59:35;-0.70;81.70
30290;DHT22;17105;55.652;37.710;2022-11-25T02:00:12;-0.60;81.70
30290;DHT22;17105;55.652;37.710;2022-11-25T02:00:49;-0.70;81.70
30290;DHT22;17105;55.652;37.710;2022-11-25T02:01:25;-0.70;81.70
30290;DHT22;17105;55.652;37.710;2022-11-25T02:02:00;-0.60;81.80
30290;DHT22;17105;55.652;37.710;2022-11-25T02:02:34;-0.60;81.80
30290;DHT22;17105;55.652;37.710;2022-11-25T02:03:10;-0.70;81.80
30290;DHT22;17105;55.652;37.710;2022-11-25T02:03:48;-0.60;81.80
30290;DHT22;17105;55.652;37.710;2022-11-25T02:04:23;-0.60;81.80
30290;DHT22;17105;55.652;37.710;2022-11-25T02:04:59;-0.70;81.80
30290;DHT22;17105;55.652;37.710;2022-11-25T02:05:39;-0.70;81.90
30290;DHT22;17105;55.652;37.710;2022-11-25T02:06:19;-0.70;82.00
30290;DHT22;17105;55.652;37.710;2022-11-25T02:06:56;-0.70;82.10
30290;DHT22;17105;55.652;37.710;2022-11-25T02:07:33;-0.80;82.70
30290;DHT22;17105;55.652;37.710;2022-11-25T02:08:11;-0.80;82.20
30290;DHT22;17105;55.652;37.710;2022-11-25T02:23:51;-0.90;82.90
30290;DHT22;17105;55.652;37.710;2022-11-25T02:24:29;-1.00;83.40
30290;DHT22;17105;55.652;37.710;2022-11-25T02:25:13;-1.00;83.50
30290;DHT22;17105;55.652;37.710;2022-11-25T02:25:46;-1.00;83.60
30290;DHT22;17105;55.652;37.710;2022-11-25T02:26:21;-1.00;83.60
30290;DHT22;17105;55.652;37.710;2022-11-25T02:26:56;-0.90;83.70
30290;DHT22;17105;55.652;37.710;2022-11-25T02:27:31;-0.90;83.70
30290;DHT22;17105;55.652;37.710;2022-11-25T02:28:07;-0.90;83.60
30290;DHT22;17105;55.652;37.710;2022-11-25T02:28:43;-0.90;83.50
30290;DHT22;17105;55.652;37.710;2022-11-25T02:29:20;-0.90;83.50
30290;DHT22;17105;55.652;37.710;2022-11-25T02:29:54;-0.90;83.50
30290;DHT22;17105;55.652;37.710;2022-11-25T02:30:29;-0.90;83.50
30290;DHT22;17105;55.652;37.710;2022-11-25T02:31:05;-0.90;83.60
30290;DHT22;17105;55.652;37.710;2022-11-25T02:31:41;-0.80;83.60
30290;DHT22;17105;55.652;37.710;2022-11-25T02:32:19;-0.90;83.50
30290;DHT22;17105;55.652;37.710;2022-11-25T02:32:56;-0.90;83.50
30290;DHT22;17105;55.652;37.710;2022-11-25T02:33:32;-0.80;83.60
30290;DHT22;17105;55.652;37.710;2022-11-25T02:34:06;-0.80;83.50
30290;DHT22;17105;55.652;37.710;2022-11-25T02:34:45;-0.90;83.50
30290;DHT22;17105;55.652;37.710;2022-11-25T02:35:24;-0.90;83.50
30290;DHT22;17105;55.652;37.710;2022-11-25T02:35:58;-0.90;83.50
30290;DHT22;17105;55.652;37.710;2022-11-25T02:36:34;-0.80;83.40
30290;DHT22;17105;55.652;37.710;2022-11-25T02:37:08;-0.80;83.20
30290;DHT22;17105;55.652;37.710;2022-11-25T02:37:41;-0.80;83.10
30290;DHT22;17105;55.652;37.710;2022-11-25T02:38:17;-0.80;82.90
30290;DHT22;17105;55.652;37.710;2022-11-25T02:38:52;-0.80;82.90
30290;DHT22;17105;55.652;37.710;2022-11-25T02:39:28;-0.80;82.80
30290;DHT22;17105;55.652;37.710;2022-11-25T02:40:04;-0.90;83.00
30290;DHT22;17105;55.652;37.710;2022-11-25T02:40:42;-0.90;83.10
30290;DHT22;17105;55.652;37.710;2022-11-25T02:41:17;-0.90;83.20
30290;DHT22;17105;55.652;37.710;2022-11-25T02:41:57;-0.90;83.30
30290;DHT22;17105;55.652;37.710;2022-11-25T02:42:32;-0.90;83.30
30290;DHT22;17105;55.652;37.710;2022-11-25T02:43:06;-0.90;83.10
30290;DHT22;17105;55.652;37.710;2022-11-25T02:43:43;-0.90;83.00
30290;DHT22;17105;55.652;37.710;2022-11-25T02:44:17;-0.90;82.90
30290;DHT22;17105;55.652;37.710;2022-11-25T02:44:52;-0.80;82.90
30290;DHT22;17105;55.652;37.710;2022-11-25T02:45:31;-0.80;82.80
30290;DHT22;17105;55.652;37.710;2022-11-25T02:46:08;-0.90;82.60
30290;DHT22;17105;55.652;37.710;2022-11-25T02:46:50;-0.80;82.40
30290;DHT22;17105;55.652;37.710;2022-11-25T02:47:23;-0.90;82.30
30290;DHT22;17105;55.652;37.710;2022-11-25T02:47:58;-0.80;82.30
30290;DHT22;17105;55.652;37.710;2022-11-25T02:48:32;-0.80;82.30
30290;DHT22;17105;55.652;37.710;2022-11-25T02:49:27;-0.80;82.40
30290;DHT22;17105;55.652;37.710;2022-11-25T02:50:02;-0.70;82.30
30290;DHT22;17105;55.652;37.710;2022-11-25T02:50:37;-0.70;82.20
30290;DHT22;17105;55.652;37.710;2022-11-25T02:51:12;-0.70;82.10
30290;DHT22;17105;55.652;37.710;2022-11-25T02:51:45;-0.70;81.80
30290;DHT22;17105;55.652;37.710;2022-11-25T02:52:21;-0.70;81.70
30290;DHT22;17105;55.652;37.710;2022-11-25T02:52:56;-0.70;81.60
30290;DHT22;17105;55.652;37.710;2022-11-25T02:53:30;-0.70;81.50
30290;DHT22;17105;55.652;37.710;2022-11-25T02:54:04;-0.70;81.50
30290;DHT22;17105;55.652;37.710;2022-11-25T02:54:41;-0.80;81.50
30290;DHT22;17105;55.652;37.710;2022-11-25T02:55:14;-0.80;81.50
30290;DHT22;17105;55.652;37.710;2022-11-25T02:55:51;-0.80;81.40
30290;DHT22;17105;55.652;37.710;2022-11-25T02:56:27;-0.90;81.30
30290;DHT22;17105;55.652;37.710;2022-11-25T02:57:02;-0.90;81.50
30290;DHT22;17105;55.652;37.710;2022-11-25T02:57:39;-0.90;81.50
30290;DHT22;17105;55.652;37.710;2022-11-25T02:58:14;-0.90;81.60
30290;DHT22;17105;55.652;37.710;2022-11-25T02:58:48;-1.00;81.80
30290;DHT22;17105;55.652;37.710;2022-11-25T02:59:22;-1.00;82.10
30290;DHT22;17105;55.652;37.710;2022-11-25T02:59:57;-1.00;82.40
30290;DHT22;17105;55.652;37.710;2022-11-25T03:00:31;-1.10;82.70
30290;DHT22;17105;55.652;37.710;2022-11-25T03:01:06;-1.10;82.80
30290;DHT22;17105;55.652;37.710;2022-11-25T03:01:41;-1.10;82.90
30290;DHT22;17105;55.652;37.710;2022-11-25T03:02:15;-1.10;83.00
30290;DHT22;17105;55.652;37.710;2022-11-25T03:02:49;-1.10;83.10
30290;DHT22;17105;55.652;37.710;2022-11-25T03:03:25;-1.10;83.20
30290;DHT22;17105;55.652;37.710;2022-11-25T03:04:00;-1.10;83.30
30290;DHT22;17105;55.652;37.710;2022-11-25T03:04:34;-1.10;83.40
30290;DHT22;17105;55.652;37.710;2022-11-25T03:05:08;-1.00;83.60
30290;DHT22;17105;55.652;37.710;2022-11-25T03:05:44;-1.00;83.50
30290;DHT22;17105;55.652;37.710;2022-11-25T03:06:17;-1.00;83.30
30290;DHT22;17105;55.652;37.710;2022-11-25T03:06:51;-1.00;83.20
30290;DHT22;17105;55.652;37.710;2022-11-25T03:07:28;-0.90;83.10
30290;DHT22;17105;55.652;37.710;2022-11-25T03:08:03;-0.90;82.90
30290;DHT22;17105;55.652;37.710;2022-11-25T03:08:41;-0.90;82.90
30290;DHT22;17105;55.652;37.710;2022-11-25T03:09:18;-0.90;83.00
30290;DHT22;17105;55.652;37.710;2022-11-25T03:09:52;-0.90;83.10
30290;DHT22;17105;55.652;37.710;2022-11-25T03:10:28;-0.90;83.10
30290;DHT22;17105;55.652;37.710;2022-11-25T03:11:05;-1.00;83.10
30290;DHT22;17105;55.652;37.710;2022-11-25T03:11:38;-0.90;83.30
30290;DHT22;17105;55.652;37.710;2022-11-25T03:12:30;-0.90;83.30
30290;DHT22;17105;55.652;37.710;2022-11-25T03:13:06;-0.90;83.20
30290;DHT22;17105;55.652;37.710;2022-11-25T03:13:44;-0.90;83.20
30290;DHT22;17105;55.652;37.710;2022-11-25T03:14:19;-0.90;83.10
30290;DHT22;17105;55.652;37.710;2022-11-25T03:14:53;-0.90;83.00
30290;DHT22;17105;55.652;37.710;2022-11-25T03:15:28;-0.90;83.20
30290;DHT22;17105;55.652;37.710;2022-11-25T03:16:05;-0.90;83.20
30290;DHT22;17105;55.652;37.710;2022-11-25T03:16:40;-0.80;83.10
30290;DHT22;17105;55.652;37.710;2022-11-25T03:17:14;-0.80;83.00
30290;DHT22;17105;55.652;37.710;2022-11-25T03:17:48;-0.80;82.80
30290;DHT22;17105;55.652;37.710;2022-11-25T03:18:23;-0.80;82.50
30290;DHT22;17105;55.652;37.710;2022-11-25T03:18:57;-0.80;82.10
30290;DHT22;17105;55.652;37.710;2022-11-25T03:19:31;-0.70;81.90
30290;DHT22;17105;55.652;37.710;2022-11-25T03:20:06;-0.70;81.80
30290;DHT22;17105;55.652;37.710;2022-11-25T03:20:39;-0.70;82.20
30290;DHT22;17105;55.652;37.710;2022-11-25T03:21:15;-0.70;81.60
30290;DHT22;17105;55.652;37.710;2022-11-25T03:21:49;-0.70;81.70
30290;DHT22;17105;55.652;37.710;2022-11-25T03:22:23;-0.70;81.80
30290;DHT22;17105;55.652;37.710;2022-11-25T03:22:59;-0.70;81.80
30290;DHT22;17105;55.652;37.710;2022-11-25T03:23:32;-0.70;81.90
30290;DHT22;17105;55.652;37.710;2022-11-25T03:24:07;-0.70;81.90
30290;DHT22;17105;55.652;37.710;2022-11-25T03:24:42;-0.80;81.80
30290;DHT22;17105;55.652;37.710;2022-11-25T03:25:16;-0.80;81.90
30290;DHT22;17105;55.652;37.710;2022-11-25T03:25:53;-0.80;82.10
30290;DHT22;17105;55.652;37.710;2022-11-25T03:26:29;-0.90;82.30
30290;DHT22;17105;55.652;37.710;2022-11-25T03:27:03;-0.90;82.30
30290;DHT22;17105;55.652;37.710;2022-11-25T03:27:37;-0.90;82.30
30290;DHT22;17105;55.652;37.710;2022-11-25T03:28:12;-0.90;82.50
30290;DHT22;17105;55.652;37.710;2022-11-25T03:28:46;-0.90;82.50
30290;DHT22;17105;55.652;37.710;2022-11-25T03:29:20;-0.90;82.30
30290;DHT22;17105;55.652;37.710;2022-11-25T03:29:55;-0.90;82.20
30290;DHT22;17105;55.652;37.710;2022-11-25T03:30:29;-0.90;82.00
30290;DHT22;17105;55.652;37.710;2022-11-25T03:31:08;-0.90;82.00
30290;DHT22;17105;55.652;37.710;2022-11-25T03:31:42;-0.90;82.10
30290;DHT22;17105;55.652;37.710;2022-11-25T03:32:16;-0.90;82.70
30290;DHT22;17105;55.652;37.710;2022-11-25T03:32:50;-0.90;82.30
30290;DHT22;17105;55.652;37.710;2022-11-25T03:33:25;-1.00;82.30
30290;DHT22;17105;55.652;37.710;2022-11-25T03:34:00;-0.90;82.40
30290;DHT22;17105;55.652;37.710;2022-11-25T03:34:34;-0.90;82.40
30290;DHT22;17105;55.652;37.710;2022-11-25T03:35:10;-0.90;82.20
30290;DHT22;17105;55.652;37.710;2022-11-25T03:35:43;-0.90;82.00
30290;DHT22;17105;55.652;37.710;2022-11-25T03:36:17;-0.90;81.80
30290;DHT22;17105;55.652;37.710;2022-11-25T03:36:53;-0.80;81.90
30290;DHT22;17105;55.652;37.710;2022-11-25T03:37:30;-0.80;81.80
30290;DHT22;17105;55.652;37.710;2022-11-25T03:38:04;-0.80;81.90
30290;DHT22;17105;55.652;37.710;2022-11-25T03:38:40;-0.90;81.90
30290;DHT22;17105;55.652;37.710;2022-11-25T03:39:14;-0.90;82.00
30290;DHT22;17105;55.652;37.710;2022-11-25T03:39:48;-0.80;82.10
30290;DHT22;17105;55.652;37.710;2022-11-25T03:40:22;-0.90;82.00
30290;DHT22;17105;55.652;37.710;2022-11-25T03:40:56;-0.90;82.10
30290;DHT22;17105;55.652;37.710;2022-11-25T03:41:32;-0.80;82.10
30290;DHT22;17105;55.652;37.710;2022-11-25T03:42:06;-0.80;82.10
30290;DHT22;17105;55.652;37.710;2022-11-25T03:42:39;-0.80;82.20
30290;DHT22;17105;55.652;37.710;2022-11-25T03:43:13;-0.80;82.30
30290;DHT22;17105;55.652;37.710;2022-11-25T03:43:49;-0.80;82.30
30290;DHT22;17105;55.652;37.710;2022-11-25T03:44:23;-0.80;82.20
30290;DHT22;17105;55.652;37.710;2022-11-25T03:44:57;-0.80;82.10
30290;DHT22;17105;55.652;37.710;2022-11-25T03:45:33;-0.80;82.00
30290;DHT22;17105;55.652;37.710;2022-11-25T03:46:10;-0.80;82.00
30290;DHT22;17105;55.652;37.710;2022-11-25T03:46:47;-0.80;82.10
30290;DHT22;17105;55.652;37.710;2022-11-25T03:47:21;-0.90;82.30
30290;DHT22;17105;55.652;37.710;2022-11-25T03:47:55;-0.90;82.50
30290;DHT22;17105;55.652;37.710;2022-11-25T03:48:30;-0.90;82.60
30290;DHT22;17105;55.652;37.710;2022-11-25T03:49:04;-0.90;82.70
30290;DHT22;17105;55.652;37.710;2022-11-25T03:49:38;-0.90;82.80
30290;DHT22;17105;55.652;37.710;2022-11-25T03:50:14;-0.90;82.90
30290;DHT22;17105;55.652;37.710;2022-11-25T03:50:50;-0.90;83.00
30290;DHT22;17105;55.652;37.710;2022-11-25T03:51:24;-0.90;83.00
30290;DHT22;17105;55.652;37.710;2022-11-25T03:51:58;-0.90;82.90
30290;DHT22;17105;55.652;37.710;2022-11-25T03:52:33;-0.90;83.00
30290;DHT22;17105;55.652;37.710;2022-11-25T03:53:06;-0.80;83.00
30290;DHT22;17105;55.652;37.710;2022-11-25T03:53:41;-0.80;83.50
30290;DHT22;17105;55.652;37.710;2022-11-25T03:54:18;-0.80;82.80
30290;DHT22;17105;55.652;37.710;2022-11-25T03:55:12;-0.80;82.70
30290;DHT22;17105;55.652;37.710;2022-11-25T03:55:49;-0.80;82.70
30290;DHT22;17105;55.652;37.710;2022-11-25T03:56:25;-0.80;82.80
30290;DHT22;17105;55.652;37.710;2022-11-25T03:57:02;-0.80;83.10